createdAt,value
2023-05-06T00:01:47.876Z,14.7
2023-05-06T00:06:47.865Z,14.7
2023-05-06T00:11:47.837Z,14.6
2023-05-06T00:16:47.816Z,14.6
2023-05-06T00:21:47.790Z,14.6
2023-05-06T00:26:47.776Z,14.5
2023-05-06T00:31:47.749Z,14.4
2023-05-06T00:36:47.738Z,14.4
2023-05-06T00:41:47.733Z,14.3
2023-05-06T00:46:47.697Z,14.3
2023-05-06T00:51:47.671Z,14.2
2023-05-06T00:56:47.663Z,14.2
2023-05-06T01:01:47.634Z,14.1
2023-05-06T01:06:47.608Z,14.1
2023-05-06T01:11:47.596Z,14.1
2023-05-06T01:16:47.567Z,14
2023-05-06T01:21:47.555Z,14
2023-05-06T01:26:47.542Z,14
2023-05-06T01:31:47.518Z,14
2023-05-06T01:36:47.494Z,14
2023-05-06T01:41:47.472Z,13.9
2023-05-06T01:46:47.452Z,13.9
2023-05-06T01:51:47.430Z,13.9
2023-05-06T01:56:47.411Z,13.8
2023-05-06T02:01:47.394Z,13.8
2023-05-06T02:06:47.368Z,13.8
2023-05-06T02:11:47.356Z,13.7
2023-05-06T02:16:47.329Z,13.7
2023-05-06T02:21:47.308Z,13.6
2023-05-06T02:26:47.280Z,13.6
2023-05-06T02:31:47.274Z,13.5
2023-05-06T02:36:47.249Z,13.5
2023-05-06T02:41:47.246Z,13.4
2023-05-06T02:46:47.196Z,13.4
2023-05-06T02:51:47.182Z,13.3
2023-05-06T02:56:47.164Z,13.3
2023-05-06T03:01:47.146Z,13.1
2023-05-06T03:06:47.127Z,13.1
2023-05-06T03:11:47.089Z,13.1
2023-05-06T03:16:47.083Z,13
2023-05-06T03:21:47.072Z,13
2023-05-06T03:26:47.046Z,12.9
2023-05-06T03:31:47.013Z,12.9
2023-05-06T03:36:47.019Z,12.8
2023-05-06T03:41:46.986Z,12.8
2023-05-06T03:46:46.961Z,12.7
2023-05-06T03:51:46.940Z,12.6
2023-05-06T03:56:46.924Z,12.7
2023-05-06T04:01:46.897Z,12.6
2023-05-06T04:06:46.883Z,12.5
2023-05-06T04:11:46.848Z,12.5
2023-05-06T04:16:46.841Z,12.4
2023-05-06T04:21:46.811Z,12.4
2023-05-06T04:26:46.786Z,12.4
2023-05-06T04:31:46.779Z,12.4
2023-05-06T04:36:46.764Z,12.4
2023-05-06T04:41:46.733Z,12.5
2023-05-06T04:46:46.726Z,12.5
2023-05-06T04:51:46.699Z,12.5
2023-05-06T04:56:46.665Z,12.6
2023-05-06T05:01:46.667Z,12.6
2023-05-06T05:06:46.638Z,12.7
2023-05-06T05:11:46.615Z,12.8
2023-05-06T05:16:46.604Z,12.9
2023-05-06T05:21:46.570Z,13
2023-05-06T05:26:46.562Z,13.1
2023-05-06T05:31:46.534Z,13.2
2023-05-06T05:36:46.519Z,13.3
2023-05-06T05:41:46.501Z,13.5
2023-05-06T05:46:46.468Z,13.6
2023-05-06T05:51:46.458Z,13.6
2023-05-06T05:56:46.437Z,13.7
2023-05-06T06:01:46.415Z,13.8
2023-05-06T06:06:46.392Z,13.9
2023-05-06T06:11:46.377Z,14
2023-05-06T06:16:46.343Z,14.2
2023-05-06T06:21:46.324Z,14.3
2023-05-06T06:26:46.312Z,14.5
2023-05-06T06:31:46.294Z,14.6
2023-05-06T06:36:46.277Z,14.7
2023-05-06T06:41:46.247Z,14.9
2023-05-06T06:46:46.222Z,15
2023-05-06T06:51:46.204Z,15.1
2023-05-06T06:56:46.184Z,15.2
2023-05-06T07:01:46.160Z,15.3
2023-05-06T07:06:46.136Z,15.5
2023-05-06T07:11:46.124Z,15.7
2023-05-06T07:16:46.096Z,15.9
2023-05-06T07:21:46.078Z,16.1
2023-05-06T07:26:46.054Z,16.3
2023-05-06T07:31:46.025Z,16.4
2023-05-06T07:36:46.016Z,16.6
2023-05-06T07:41:45.996Z,16.7
2023-05-06T07:46:45.957Z,16.8
2023-05-06T07:51:45.940Z,17
2023-05-06T07:56:45.938Z,17.2
2023-05-06T08:01:45.916Z,17.5
2023-05-06T08:06:45.880Z,17.7
2023-05-06T08:11:45.861Z,17.8
2023-05-06T08:16:45.847Z,17.9
2023-05-06T08:21:45.813Z,18
2023-05-06T08:26:45.805Z,18.6
2023-05-06T08:31:45.788Z,20.2
2023-05-06T08:36:45.771Z,22.1
2023-05-06T08:41:45.750Z,24.2
2023-05-06T08:46:45.723Z,25.5
2023-05-06T08:51:45.699Z,26.7
2023-05-06T08:56:45.686Z,27.6
2023-05-06T09:01:45.662Z,27.2
2023-05-06T09:06:45.635Z,25.6
2023-05-06T09:11:45.618Z,24.3
2023-05-06T09:16:45.611Z,23.4
2023-05-06T09:21:45.582Z,22.7
2023-05-06T09:26:45.556Z,22.6
2023-05-06T09:31:45.535Z,22.6
2023-05-06T09:36:45.522Z,22.6
2023-05-06T09:41:45.496Z,22.3
2023-05-06T09:46:45.476Z,22.2
2023-05-06T09:51:45.455Z,22.2
2023-05-06T09:56:45.425Z,22.2
2023-05-06T10:01:45.405Z,22.1
2023-05-06T10:06:45.385Z,21.8
2023-05-06T10:11:45.364Z,21.5
2023-05-06T10:16:45.351Z,21.8
2023-05-06T10:21:45.329Z,22.1
2023-05-06T10:26:45.299Z,22
2023-05-06T10:31:45.296Z,22.1
2023-05-06T10:36:45.246Z,22.1
2023-05-06T10:41:45.237Z,22.2
2023-05-06T10:46:45.206Z,22.2
2023-05-06T10:51:45.195Z,22.2
2023-05-06T10:56:45.158Z,22
2023-05-06T11:01:45.139Z,21.7
2023-05-06T11:06:45.130Z,21.7
2023-05-06T11:11:45.100Z,21.8
2023-05-06T11:16:45.089Z,22
2023-05-06T11:21:45.069Z,22
2023-05-06T11:26:45.055Z,22.1
2023-05-06T11:31:45.020Z,22
2023-05-06T11:36:45.018Z,22.1
2023-05-06T11:41:44.968Z,22.2
2023-05-06T11:46:44.960Z,22.1
2023-05-06T11:51:44.936Z,22.1
2023-05-06T11:56:44.920Z,22.2
2023-05-06T12:01:44.884Z,22.3
2023-05-06T12:06:44.866Z,22.3
2023-05-06T12:11:44.847Z,22.4
2023-05-06T12:16:44.824Z,22.4
2023-05-06T12:21:44.806Z,22.3
2023-05-06T12:26:44.772Z,22.4
2023-05-06T12:31:44.752Z,22.4
2023-05-06T12:36:44.747Z,22.6
2023-05-06T12:41:44.741Z,22.6
2023-05-06T12:46:44.694Z,22.6
2023-05-06T12:51:44.671Z,22.6
2023-05-06T12:56:44.656Z,22.5
2023-05-06T13:01:44.634Z,22.5
2023-05-06T13:06:44.617Z,22.5
2023-05-06T13:11:44.595Z,22.5
2023-05-06T13:16:44.563Z,22.5
2023-05-06T13:21:44.545Z,22.5
2023-05-06T13:26:44.519Z,22.6
2023-05-06T13:31:44.507Z,22.6
2023-05-06T13:36:44.514Z,22.6
2023-05-06T13:41:44.459Z,22.7
2023-05-06T13:46:44.446Z,22.7
2023-05-06T13:51:44.428Z,22.7
2023-05-06T13:56:44.405Z,22.7
2023-05-06T14:01:44.373Z,22.7
2023-05-06T14:06:44.356Z,22.7
2023-05-06T14:11:44.328Z,22.7
2023-05-06T14:16:44.310Z,22.8
2023-05-06T14:21:44.389Z,22.7
2023-05-06T14:26:44.267Z,22.7
2023-05-06T14:31:44.244Z,22.7
2023-05-06T14:36:44.225Z,22.8
2023-05-06T14:41:44.200Z,22.8
2023-05-06T14:46:44.191Z,22.7
2023-05-06T14:51:44.250Z,22.6
2023-05-06T14:56:44.138Z,22.6
2023-05-06T15:01:44.115Z,22.6
2023-05-06T15:06:44.102Z,22.5
2023-05-06T15:11:44.069Z,22.4
2023-05-06T15:16:44.059Z,22.4
2023-05-06T15:21:44.032Z,22.6
2023-05-06T15:26:44.018Z,22.7
2023-05-06T15:31:43.996Z,22.8
2023-05-06T15:36:43.970Z,22.6
2023-05-06T15:41:43.954Z,22.7
2023-05-06T15:46:43.949Z,22.6
2023-05-06T15:51:43.911Z,22.5
2023-05-06T15:56:43.889Z,22.4
2023-05-06T16:01:43.872Z,22.2
2023-05-06T16:06:43.835Z,22.1
2023-05-06T16:11:43.824Z,22
2023-05-06T16:16:43.796Z,21.9
2023-05-06T16:21:43.772Z,21.9
2023-05-06T16:26:43.755Z,21.7
2023-05-06T16:31:43.737Z,21.6
2023-05-06T16:36:43.716Z,21.5
2023-05-06T16:41:43.687Z,21.4
2023-05-06T16:46:43.703Z,21.3
2023-05-06T16:51:43.652Z,21.3
2023-05-06T16:56:43.654Z,21.2
2023-05-06T17:01:43.609Z,21.2
2023-05-06T17:06:43.586Z,21.1
2023-05-06T17:11:43.563Z,21
2023-05-06T17:16:43.539Z,21
2023-05-06T17:21:43.519Z,20.9
2023-05-06T17:26:43.562Z,20.8
2023-05-06T17:31:43.482Z,20.7
2023-05-06T17:36:43.592Z,20.5
2023-05-06T17:41:43.572Z,20.4
2023-05-06T17:46:43.488Z,20.3
2023-05-06T17:51:43.501Z,20.3
2023-05-06T17:56:43.526Z,20.1
2023-05-06T18:01:43.508Z,20
2023-05-06T18:06:43.330Z,19.9
2023-05-06T18:11:43.473Z,19.8
2023-05-06T18:16:43.479Z,19.7
2023-05-06T18:21:43.424Z,19.5
2023-05-06T18:26:43.297Z,19.3
2023-05-06T18:31:43.447Z,19.2
2023-05-06T18:36:43.387Z,19.1
2023-05-06T18:41:43.448Z,19
2023-05-06T18:46:43.172Z,18.9
2023-05-06T18:51:43.139Z,18.7
2023-05-06T18:56:43.109Z,18.6
2023-05-06T19:01:43.178Z,18.4
2023-05-06T19:06:43.072Z,18.2
2023-05-06T19:11:43.247Z,18
2023-05-06T19:16:43.243Z,17.9
2023-05-06T19:21:43.218Z,17.7
2023-05-06T19:26:43.064Z,17.6
2023-05-06T19:31:43.128Z,17.4
2023-05-06T19:36:43.131Z,17.3
2023-05-06T19:41:43.090Z,17.2
2023-05-06T19:46:43.078Z,17.2
2023-05-06T19:51:43.053Z,17.3
2023-05-06T19:56:43.044Z,17.1
2023-05-06T20:01:43.036Z,17
2023-05-06T20:06:43.001Z,16.8
2023-05-06T20:11:42.977Z,16.7
2023-05-06T20:16:42.926Z,16.6
2023-05-06T20:21:42.938Z,16.3
2023-05-06T20:26:42.859Z,16.1
2023-05-06T20:31:42.883Z,15.9
2023-05-06T20:36:42.899Z,15.8
2023-05-06T20:41:42.851Z,15.8
2023-05-06T20:46:42.831Z,15.7
2023-05-06T20:51:42.810Z,15.6
2023-05-06T20:56:42.792Z,15.5
2023-05-06T21:01:42.750Z,15.5
2023-05-06T21:06:42.693Z,15.4
2023-05-06T21:11:42.730Z,15.3
2023-05-06T21:16:42.738Z,15.3
2023-05-06T21:21:42.503Z,15.1
2023-05-06T21:26:42.561Z,15
2023-05-06T21:31:42.463Z,15
2023-05-06T21:36:42.632Z,15
2023-05-06T21:41:42.697Z,14.9
2023-05-06T21:46:42.598Z,14.9
2023-05-06T21:51:42.553Z,14.8
2023-05-06T21:56:42.524Z,14.7
2023-05-06T22:01:42.555Z,14.7
2023-05-06T22:06:42.563Z,14.7
2023-05-06T22:11:42.568Z,14.7
2023-05-06T22:16:42.280Z,14.6
2023-05-06T22:21:42.439Z,14.5
2023-05-06T22:26:42.389Z,14.4
2023-05-06T22:31:42.331Z,14.4
2023-05-06T22:36:42.345Z,14.4
2023-05-06T22:41:42.173Z,14.5
2023-05-06T22:46:42.370Z,14.5
2023-05-06T22:51:42.291Z,14.5
2023-05-06T22:56:42.237Z,14.4
2023-05-06T23:01:42.096Z,14.4
2023-05-06T23:06:42.064Z,14.5
2023-05-06T23:11:42.209Z,14.4
2023-05-06T23:16:42.199Z,14.2
2023-05-06T23:21:42.065Z,14.2
2023-05-06T23:26:41.997Z,14.2
2023-05-06T23:31:41.974Z,14.1
2023-05-06T23:36:41.941Z,14.1
2023-05-06T23:41:42.048Z,14.1
2023-05-06T23:46:41.897Z,14
2023-05-06T23:51:41.904Z,14
2023-05-06T23:56:41.862Z,14
